Time;durP1;ratioP1;P1;durP2;ratioP2;P2;SDS_P1;SDS_P2;PMS_P1;PMS_P2;Temp;Humidity;BMP_temperature;BMP_pressure;BME280_temperature;BME280_humidity;BME280_pressure;Samples;Min_cycle;Max_cycle;Signal;HPM_P1;HPM_P2
2022/09/13 00:04:12;;;;;;;28.13;19.05;;;;;;;11.79;94.48;97456.03;10373876;28;20112;-55
2022/09/13 00:09:11;;;;;;;27.60;19.00;;;;;;;11.74;93.60;97443.97;10372940;28;20516;-54
2022/09/13 00:14:10;;;;;;;25.65;19.08;;;;;;;11.70;93.85;97445.72;10373499;28;20041;-55
2022/09/13 00:19:09;;;;;;;26.40;19.33;;;;;;;11.74;93.31;97456.97;10372628;28;20032;-55
2022/09/13 00:24:08;;;;;;;26.08;18.83;;;;;;;11.70;93.47;97445.72;10373440;28;20048;-55
2022/09/13 00:29:07;;;;;;;23.33;18.75;;;;;;;11.66;93.45;97438.81;10372849;28;20060;-55
2022/09/13 00:34:06;;;;;;;23.15;17.42;;;;;;;11.64;93.39;97424.97;10372968;28;20036;-55
2022/09/13 00:39:05;;;;;;;27.58;18.05;;;;;;;11.62;93.79;97426.75;10373132;28;20061;-55
2022/09/13 00:44:24;;;;;;;20.08;15.15;;;;;;;11.51;94.30;97431.22;10372417;28;20032;-54
2022/09/13 00:49:33;;;;;;;19.70;14.05;;;;;;;11.49;94.61;97431.22;10372771;28;20080;-55
2022/09/13 00:54:39;;;;;;;19.73;15.35;;;;;;;11.48;94.16;97439.00;10372167;28;20083;-55
2022/09/13 01:00:12;;;;;;;18.85;13.52;;;;;;;11.24;95.67;97435.75;10372492;28;20543;-55
2022/09/13 01:05:15;;;;;;;18.92;13.30;;;;;;;11.29;94.83;97420.13;10371816;28;20076;-55
2022/09/13 01:10:14;;;;;;;16.13;12.43;;;;;;;11.27;95.53;97416.69;10371045;28;20069;-55
2022/09/13 01:15:13;;;;;;;;;;;;;;;11.30;94.61;97414.94;10372664;28;20072;-54
2022/09/13 01:20:13;;;;;;;19.20;13.18;;;;;;;11.04;95.59;97413.44;10371439;28;19959;-54
2022/09/13 01:25:33;;;;;;;18.10;13.15;;;;;;;10.96;96.35;97422.16;10371062;28;20076;-55
2022/09/13 01:31:14;;;;;;;18.10;13.52;;;;;;;10.69;95.69;97411.06;10371476;28;20069;-55
2022/09/13 01:36:16;;;;;;;17.92;14.30;;;;;;;10.55;95.85;97424.13;10322860;28;20083;-55
2022/09/13 01:41:34;;;;;;;21.02;15.75;;;;;;;10.53;96.67;97422.44;10371735;28;20068;-54
2022/09/13 01:47:02;;;;;;;19.73;15.20;;;;;;;10.36;96.73;97406.97;10371333;28;20164;-55
2022/09/13 01:52:01;;;;;;;22.58;16.42;;;;;;;10.43;96.72;97415.59;10371563;28;20092;-55
2022/09/13 01:57:29;;;;;;;22.48;15.23;;;;;;;10.48;96.49;97408.63;10371334;28;20060;-54
2022/09/13 02:02:38;;;;;;;21.98;15.63;;;;;;;10.41;97.28;97410.41;10342455;28;20081;-55
2022/09/13 02:07:41;;;;;;;18.85;15.75;;;;;;;10.30;97.28;97397.47;10370189;28;20068;-54
2022/09/13 02:12:42;;;;;;;22.45;16.02;;;;;;;10.41;96.93;97400.88;10374609;28;20064;-55
2022/09/13 02:17:54;;;;;;;20.98;15.68;;;;;;;10.46;97.50;97387.88;10378444;28;20087;-55
2022/09/13 02:23:01;;;;;;;18.30;14.95;;;;;;;10.56;96.85;97405.09;10378035;28;20190;-55
2022/09/13 02:28:06;;;;;;;22.33;15.40;;;;;;;10.56;97.38;97404.25;10376902;28;20080;-54
2022/09/13 02:33:46;;;;;;;21.23;15.30;;;;;;;10.51;97.39;97406.88;10377254;28;20079;-55
2022/09/13 02:38:54;;;;;;;21.45;15.65;;;;;;;10.45;96.85;97399.13;10345878;28;20076;-54
2022/09/13 02:44:02;;;;;;;21.15;14.98;;;;;;;10.37;97.56;97413.88;10377586;28;20508;-54
2022/09/13 02:49:12;;;;;;;20.48;15.20;;;;;;;10.42;97.05;97401.72;10376480;28;20574;-54
2022/09/13 02:54:13;;;;;;;;;;;;;;;10.41;96.91;97405.22;10376183;28;20083;-54
2022/09/13 02:59:15;;;;;;;25.00;15.85;;;;;;;10.46;96.99;97412.97;10375676;28;19955;-54
2022/09/13 03:04:15;;;;;;;23.98;17.15;;;;;;;10.40;97.20;97395.69;10376244;28;20080;-54
2022/09/13 03:09:14;;;;;;;;;;;;;;;10.49;97.21;97411.19;10375680;28;20060;-54
2022/09/13 03:14:16;;;;;;;27.75;18.42;;;;;;;10.52;97.11;97418.09;10376363;28;19948;-54
2022/09/13 03:19:39;;;;;;;25.23;18.70;;;;;;;10.55;97.32;97418.09;10376002;28;20076;-54
2022/09/13 03:25:04;;;;;;;27.45;19.02;;;;;;;10.46;97.67;97423.34;10374544;28;20076;-54
2022/09/13 03:30:06;;;;;;;25.55;17.33;;;;;;;10.38;97.89;97413.03;10371618;28;20520;-55
2022/09/13 03:35:25;;;;;;;24.25;16.27;;;;;;;10.33;97.09;97412.16;10375033;28;20472;-54
2022/09/13 03:40:37;;;;;;;25.90;16.97;;;;;;;10.31;96.97;97403.56;10374385;28;20076;-54
2022/09/13 03:45:43;;;;;;;23.75;16.13;;;;;;;10.38;97.42;97416.47;10374294;28;20077;-55
2022/09/13 03:50:46;;;;;;;24.00;16.55;;;;;;;10.44;96.94;97420.75;10374500;28;20089;-54
2022/09/13 03:55:45;;;;;;;24.40;17.23;;;;;;;10.49;96.98;97413.78;10374349;28;20076;-54
2022/09/13 04:00:44;;;;;;;21.23;14.95;;;;;;;10.46;96.85;97416.41;10374089;28;20064;-54
2022/09/13 04:05:44;;;;;;;18.92;14.55;;;;;;;10.34;96.48;97416.50;10373434;28;20072;-54
2022/09/13 04:10:43;;;;;;;22.60;13.20;;;;;;;10.43;96.33;97424.22;10373680;28;20075;-54
2022/09/13 04:15:42;;;;;;;18.35;14.07;;;;;;;10.37;96.22;97425.09;10373855;28;20027;-54
2022/09/13 04:20:42;;;;;;;17.17;12.55;;;;;;;10.43;96.74;97429.41;10373612;28;20024;-54
2022/09/13 04:25:40;;;;;;;16.40;10.35;;;;;;;10.48;96.13;97425.06;10373713;28;20064;-54
2022/09/13 04:30:43;;;;;;;16.67;10.18;;;;;;;10.67;95.98;97430.97;10355123;28;20104;-54
2022/09/13 04:35:42;;;;;;;16.50;11.07;;;;;;;10.75;95.17;97418.84;10372515;28;20076;-54
2022/09/13 04:40:42;;;;;;;19.17;11.68;;;;;;;10.90;95.14;97430.84;10362067;28;20609;-54
2022/09/13 04:45:42;;;;;;;14.75;11.27;;;;;;;11.06;94.99;97435.91;10413207;28;20078;-55
2022/09/13 04:50:41;;;;;;;;;;;;;;;11.30;94.18;97432.28;10377636;28;20081;-55
2022/09/13 04:55:40;;;;;;;20.00;11.85;;;;;;;11.45;93.71;97443.38;10372731;28;19960;-54
2022/09/13 05:00:39;;;;;;;20.20;13.57;;;;;;;11.58;93.84;97448.47;10371297;28;20033;-54
2022/09/13 05:05:38;;;;;;;20.50;12.52;;;;;;;11.60;92.97;97441.50;10371802;28;20420;-54
2022/09/13 05:10:37;;;;;;;17.63;12.15;;;;;;;11.66;93.16;97446.63;10369888;28;20151;-54
2022/09/13 05:15:35;;;;;;;22.45;15.13;;;;;;;11.58;92.32;97451.06;10371797;28;20040;-54
2022/09/13 05:20:34;;;;;;;22.33;16.75;;;;;;;11.63;92.77;97455.31;10371712;28;20112;-54
2022/09/13 05:25:33;;;;;;;20.80;14.20;;;;;;;11.82;92.73;97460.31;10369071;28;20536;-54
2022/09/13 05:30:32;;;;;;;18.60;14.75;;;;;;;12.08;92.61;97457.44;10371171;28;20536;-54
2022/09/13 05:35:31;;;;;;;20.73;13.88;;;;;;;12.30;91.89;97458.94;10369164;28;20416;-54
2022/09/13 05:40:30;;;;;;;25.33;15.30;;;;;;;12.54;91.44;97456.03;10370585;28;20031;-55
2022/09/13 05:45:29;;;;;;;20.30;14.55;;;;;;;12.73;91.05;97458.34;10371893;28;20029;-55
2022/09/13 05:50:28;;;;;;;24.10;15.40;;;;;;;12.94;89.86;97451.09;10376209;28;20127;-55
2022/09/13 05:55:27;;;;;;;21.45;14.73;;;;;;;13.15;89.79;97448.16;10375859;28;20035;-55
2022/09/13 06:00:26;;;;;;;19.15;13.57;;;;;;;13.21;88.59;97421.16;10374509;28;20025;-55
2022/09/13 06:05:25;;;;;;;;;;;;;;;13.43;87.43;97434.66;10374195;28;20069;-55
2022/09/13 06:10:24;;;;;;;21.30;13.35;;;;;;;13.48;86.95;97435.44;10373370;28;19951;-55
2022/09/13 06:15:23;;;;;;;18.38;12.75;;;;;;;13.57;85.95;97445.75;10374107;28;20099;-55
2022/09/13 06:20:22;;;;;;;17.50;13.18;;;;;;;13.64;84.89;97449.09;10376673;28;20037;-55
2022/09/13 06:25:21;;;;;;;19.95;14.30;;;;;;;13.71;85.37;97452.47;10375874;28;20092;-55
2022/09/13 06:30:20;;;;;;;18.20;14.13;;;;;;;13.92;85.86;97459.03;10375689;28;20076;-55
2022/09/13 06:35:19;;;;;;;19.05;13.90;;;;;;;14.24;85.57;97465.34;10375645;28;20551;-55
2022/09/13 06:40:18;;;;;;;19.42;12.98;;;;;;;14.49;83.45;97468.31;10375007;28;20120;-55
2022/09/13 06:45:17;;;;;;;19.13;13.27;;;;;;;14.82;81.85;97464.97;10375509;28;20021;-55
2022/09/13 06:50:17;;;;;;;16.13;13.27;;;;;;;15.16;81.43;97466.81;10375536;28;20532;-55
2022/09/13 06:55:16;;;;;;;18.77;12.00;;;;;;;15.49;79.36;97479.97;10375007;28;20365;-55
2022/09/13 07:00:15;;;;;;;18.63;12.35;;;;;;;15.75;78.61;97476.69;10373707;28;20102;-55
2022/09/13 07:05:15;;;;;;;18.67;13.20;;;;;;;15.76;76.66;97485.38;10374737;28;20485;-55
2022/09/13 07:10:14;;;;;;;17.38;12.93;;;;;;;15.93;77.04;97480.59;10374504;28;20076;-55
2022/09/13 07:15:13;;;;;;;;;;;;;;;16.14;76.75;97493.97;10375457;28;20124;-55
2022/09/13 07:20:12;;;;;;;15.18;12.25;;;;;;;16.48;76.74;97491.28;10375169;28;19912;-55
2022/09/13 07:25:11;;;;;;;;;;;;;;;16.84;76.03;97489.38;10375099;28;20467;-55
2022/09/13 07:30:10;;;;;;;17.00;11.97;;;;;;;17.14;75.11;97482.34;10356592;28;19944;-55
2022/09/13 07:35:10;;;;;;;15.13;8.50;;;;;;;17.37;71.35;97483.34;10374628;28;20084;-55
2022/09/13 07:40:10;;;;;;;18.90;8.80;;;;;;;17.55;66.81;97476.63;10374207;28;20526;-55
2022/09/13 07:45:11;;;;;;;11.60;7.57;;;;;;;17.91;62.92;97498.16;10373672;28;20492;-56
2022/09/13 07:50:10;;;;;;;8.27;5.07;;;;;;;18.24;59.19;97499.66;10374484;28;20068;-55
2022/09/13 07:55:09;;;;;;;6.03;4.03;;;;;;;18.54;55.77;97489.81;10374398;28;20031;-55
2022/09/13 08:00:09;;;;;;;4.85;3.80;;;;;;;18.67;55.19;97495.47;10373610;28;20037;-55
2022/09/13 08:05:08;;;;;;;6.07;3.60;;;;;;;18.96;54.39;97503.13;10373734;28;20073;-55
2022/09/13 08:10:08;;;;;;;5.05;2.50;;;;;;;18.67;50.99;97500.75;10372375;28;20113;-55
2022/09/13 08:15:07;;;;;;;3.30;2.55;;;;;;;18.80;50.26;97492.34;10373378;28;20084;-55
2022/09/13 08:20:06;;;;;;;5.10;2.92;;;;;;;18.53;51.61;97502.09;10373462;28;20057;-55
2022/09/13 08:25:05;;;;;;;5.18;2.80;;;;;;;18.54;50.10;97489.81;10372955;28;20084;-55
2022/09/13 08:30:05;;;;;;;3.05;2.10;;;;;;;18.58;47.57;97481.75;10381250;28;20079;-55
2022/09/13 08:35:04;;;;;;;3.70;2.60;;;;;;;18.61;47.92;97481.63;10373048;28;20067;-55
2022/09/13 08:40:03;;;;;;;3.42;2.33;;;;;;;18.67;47.50;97470.06;10373336;28;20057;-55
2022/09/13 08:45:02;;;;;;;4.18;3.00;;;;;;;18.89;47.57;97474.50;10372633;28;20077;-55
2022/09/13 08:50:26;;;;;;;3.92;2.60;;;;;;;19.11;46.53;97477.13;10372869;28;20095;-55
2022/09/13 08:56:07;;;;;;;2.53;2.00;;;;;;;19.29;44.29;97483.44;10375217;28;20079;-55
2022/09/13 09:01:15;;;;;;;2.42;2.22;;;;;;;19.42;44.63;97464.47;10380116;28;20106;-55
2022/09/13 09:06:15;;;;;;;2.30;2.10;;;;;;;19.19;43.76;97482.97;10371523;28;20064;-55
2022/09/13 09:11:27;;;;;;;2.53;1.98;;;;;;;19.22;45.18;97467.03;10371936;28;20076;-55
2022/09/13 09:16:38;;;;;;;3.65;2.30;;;;;;;19.50;44.68;97460.66;10372711;28;20468;-56
2022/09/13 09:21:37;;;;;;;3.05;2.10;;;;;;;19.94;43.44;97456.16;10375298;28;20084;-55
2022/09/13 09:26:36;;;;;;;3.05;2.30;;;;;;;20.26;43.78;97452.13;10380885;28;20040;-56
2022/09/13 09:32:02;;;;;;;3.63;2.45;;;;;;;20.29;40.99;97443.22;10385167;28;20064;-55
2022/09/13 09:37:20;;;;;;;3.83;2.22;;;;;;;20.24;42.28;97439.94;10382697;28;20060;-56
2022/09/13 09:42:23;;;;;;;4.03;2.27;;;;;;;20.42;41.75;97415.41;10379764;28;20076;-56
2022/09/13 09:47:25;;;;;;;2.58;2.15;;;;;;;20.42;41.19;97409.28;10380450;28;20491;-56
2022/09/13 09:52:31;;;;;;;2.55;2.10;;;;;;;20.44;41.47;97399.50;10381772;28;20108;-56
2022/09/13 09:57:50;;;;;;;2.30;2.10;;;;;;;20.53;40.04;97407.00;10380169;28;20068;-55
2022/09/13 10:02:53;;;;;;;2.57;2.10;;;;;;;20.54;40.99;97397.31;10382451;28;20060;-56
2022/09/13 10:08:04;;;;;;;1.95;1.80;;;;;;;20.58;40.83;97412.06;10419896;28;20117;-56
2022/09/13 10:13:06;;;;;;;2.53;1.90;;;;;;;20.26;39.38;97404.69;10421075;28;20087;-56
2022/09/13 10:18:16;;;;;;;2.20;2.00;;;;;;;20.50;38.93;97391.34;10420129;28;20064;-56
2022/09/13 10:23:15;;;;;;;1.95;1.80;;;;;;;20.09;38.00;97401.94;10419189;28;20071;-55
2022/09/13 10:28:17;;;;;;;2.58;2.10;;;;;;;20.19;37.20;97384.81;10377939;28;20033;-56
2022/09/13 10:33:29;;;;;;;2.13;1.70;;;;;;;20.36;37.45;97383.19;10378850;28;20071;-56
2022/09/13 10:38:32;;;;;;;1.88;1.73;;;;;;;20.66;38.93;97376.50;10379491;28;20068;-56
2022/09/13 10:43:32;;;;;;;2.03;1.75;;;;;;;20.91;37.42;97375.31;10378566;28;20083;-56
2022/09/13 10:48:45;;;;;;;3.47;2.10;;;;;;;20.98;38.59;97363.53;10379147;28;20084;-56
2022/09/13 10:53:44;;;;;;;2.55;1.80;;;;;;;21.37;37.63;97370.41;10381589;28;20083;-56
2022/09/13 10:58:43;;;;;;;2.78;1.98;;;;;;;21.84;36.86;97353.91;10377758;28;20104;-56
2022/09/13 11:03:56;;;;;;;3.45;2.13;;;;;;;22.45;36.81;97346.25;10378807;28;20072;-56
2022/09/13 11:09:14;;;;;;;2.05;1.88;;;;;;;22.65;35.23;97343.38;10378741;28;20076;-56
2022/09/13 11:14:22;;;;;;;1.70;1.60;;;;;;;22.46;33.41;97342.66;10377903;28;20068;-56
2022/09/13 11:19:39;;;;;;;3.90;1.90;;;;;;;22.48;34.70;97346.09;10377960;28;20320;-56
2022/09/13 11:24:56;;;;;;;1.75;1.50;;;;;;;22.28;33.73;97340.13;10377695;28;20067;-56
2022/09/13 11:30:09;;;;;;;3.22;2.22;;;;;;;21.94;34.15;97347.22;10375528;28;20083;-56
2022/09/13 11:35:23;;;;;;;3.05;1.92;;;;;;;22.14;34.06;97321.53;10377408;28;20079;-56
2022/09/13 11:40:39;;;;;;;1.85;1.75;;;;;;;22.38;35.48;97309.56;10375558;28;20064;-56
2022/09/13 11:46:00;;;;;;;3.40;1.77;;;;;;;22.51;35.47;97317.69;10376489;28;20057;-56
2022/09/13 11:50:59;;;;;;;4.78;1.85;;;;;;;22.67;35.34;97315.03;10342888;28;20085;-56
2022/09/13 11:56:10;;;;;;;3.15;1.80;;;;;;;22.44;34.06;97315.50;10367233;28;20028;-56
2022/09/13 12:01:12;;;;;;;4.20;2.00;;;;;;;22.54;33.53;97311.38;10376618;28;20500;-56
2022/09/13 12:06:22;;;;;;;2.25;1.55;;;;;;;22.37;32.62;97318.47;10375308;28;20084;-56
2022/09/13 12:11:28;;;;;;;3.03;2.10;;;;;;;22.23;34.29;97314.88;10375483;28;20067;-56
2022/09/13 12:16:34;;;;;;;2.85;1.77;;;;;;;22.44;33.42;97307.56;10376510;28;20106;-56
2022/09/13 12:21:39;;;;;;;2.03;1.83;;;;;;;22.71;31.97;97313.91;10401685;28;20071;-56
2022/09/13 12:26:44;;;;;;;3.15;1.58;;;;;;;23.19;33.16;97309.41;10373363;28;20087;-56
2022/09/13 12:31:43;;;;;;;4.45;1.95;;;;;;;23.75;34.25;97290.22;10374042;28;20084;-56
2022/09/13 12:36:52;;;;;;;5.68;1.80;;;;;;;24.34;32.30;97300.69;10375221;28;20064;-56
2022/09/13 12:42:21;;;;;;;2.75;1.60;;;;;;;24.31;30.20;97296.44;10374963;28;20076;-56
2022/09/13 12:47:51;;;;;;;1.90;1.70;;;;;;;24.30;30.48;97285.91;10374787;28;20076;-56
2022/09/13 12:53:07;;;;;;;2.60;1.70;;;;;;;24.11;30.50;97279.09;10374517;28;20515;-56
2022/09/13 12:58:29;;;;;;;1.80;1.70;;;;;;;23.71;31.74;97286.03;10374229;28;20060;-56
2022/09/13 13:03:32;;;;;;;2.35;2.03;;;;;;;23.44;32.72;97287.59;10375059;28;20060;-57
2022/09/13 13:08:33;;;;;;;2.25;1.90;;;;;;;23.49;32.51;97287.34;10374714;28;20528;-56
2022/09/13 13:14:01;;;;;;;3.67;1.73;;;;;;;23.33;33.07;97297.13;10374311;28;20060;-56
2022/09/13 13:19:02;;;;;;;4.00;1.77;;;;;;;22.92;33.81;97281.91;10371771;28;20069;-56
2022/09/13 13:24:16;;;;;;;4.65;1.95;;;;;;;22.84;34.28;97295.59;10374525;28;20065;-55
2022/09/13 13:29:32;;;;;;;3.42;2.10;;;;;;;22.63;33.79;97296.78;10373859;28;20084;-56
2022/09/13 13:34:47;;;;;;;2.25;2.05;;;;;;;22.21;34.95;97299.09;10374492;28;20060;-56
2022/09/13 13:39:48;;;;;;;2.63;2.20;;;;;;;22.04;35.52;97299.16;10356231;28;20072;-56
2022/09/13 13:44:53;;;;;;;3.83;2.00;;;;;;;21.85;35.92;97300.16;10373868;28;20064;-56
2022/09/13 13:50:12;;;;;;;3.35;2.00;;;;;;;21.96;36.38;97295.13;10372987;28;20088;-56
2022/09/13 13:55:37;;;;;;;2.30;1.85;;;;;;;21.94;35.19;97310.22;10373749;28;20464;-56
2022/09/13 14:00:47;;;;;;;3.85;2.20;;;;;;;22.19;35.16;97308.91;10373308;28;20060;-56
2022/09/13 14:06:13;;;;;;;2.40;1.80;;;;;;;22.28;34.41;97303.13;10371324;28;20073;-56
2022/09/13 14:11:25;;;;;;;2.47;1.95;;;;;;;22.36;34.75;97303.53;10379377;28;20060;-56
2022/09/13 14:16:54;;;;;;;2.42;1.90;;;;;;;22.23;34.56;97315.72;10360109;28;20067;-57
2022/09/13 14:22:06;;;;;;;4.28;1.80;;;;;;;22.20;35.35;97321.16;10375642;28;20060;-56
2022/09/13 14:27:05;;;;;;;2.88;1.98;;;;;;;22.34;34.40;97310.72;10374791;28;20075;-56
2022/09/13 14:32:09;;;;;;;2.03;1.75;;;;;;;22.45;34.96;97309.25;10376419;28;20068;-56
2022/09/13 14:37:17;;;;;;;2.30;1.85;;;;;;;22.26;34.61;97309.44;10377879;28;20061;-56
2022/09/13 14:42:16;;;;;;;6.57;2.23;;;;;;;22.34;34.43;97300.13;10337078;28;20079;-56
2022/09/13 14:47:21;;;;;;;3.10;2.38;;;;;;;22.44;35.27;97302.28;10336386;28;20121;-56
2022/09/13 14:52:30;;;;;;;4.32;2.72;;;;;;;22.66;35.35;97308.03;10336803;28;20533;-57
2022/09/13 14:57:33;;;;;;;3.22;2.20;;;;;;;22.68;36.77;97308.81;10336067;28;20073;-56
2022/09/13 15:02:37;;;;;;;2.63;2.15;;;;;;;22.88;37.79;97307.69;10336097;28;20073;-56
2022/09/13 15:07:38;;;;;;;3.92;2.35;;;;;;;23.13;39.59;97314.19;10343441;28;20080;-56
2022/09/13 15:12:57;;;;;;;4.00;2.70;;;;;;;23.18;37.87;97314.75;10376318;28;20490;-56
2022/09/13 15:18:15;;;;;;;5.57;3.08;;;;;;;23.24;39.20;97309.13;10374838;28;20452;-56
2022/09/13 15:23:17;;;;;;;5.67;3.77;;;;;;;23.26;39.95;97314.34;10375291;28;20067;-56
2022/09/13 15:28:22;;;;;;;6.28;3.63;;;;;;;23.22;40.37;97317.16;10375750;28;20053;-56
2022/09/13 15:33:33;;;;;;;5.20;2.90;;;;;;;23.15;40.33;97321.09;10375857;28;20444;-56
2022/09/13 15:38:32;;;;;;;4.57;2.78;;;;;;;23.04;40.86;97326.16;10374531;28;20080;-56
2022/09/13 15:43:31;;;;;;;3.05;2.30;;;;;;;22.83;41.61;97324.75;10371065;28;20068;-56
2022/09/13 15:48:33;;;;;;;7.65;4.00;;;;;;;22.59;42.13;97330.47;10373435;28;20051;-56
2022/09/13 15:53:32;;;;;;;5.68;4.35;;;;;;;22.36;42.03;97331.75;10374713;28;20094;-56
2022/09/13 15:58:32;;;;;;;7.90;4.32;;;;;;;22.06;41.71;97336.94;10373525;28;20072;-56
2022/09/13 16:03:31;;;;;;;6.10;4.40;;;;;;;21.83;42.80;97332.84;10372899;28;20072;-56
2022/09/13 16:08:30;;;;;;;5.22;3.38;;;;;;;21.62;43.04;97338.34;10373658;28;20078;-56
2022/09/13 16:13:29;;;;;;;17.60;13.00;;;;;;;21.42;44.27;97342.00;10374529;28;20025;-56
2022/09/13 16:18:28;;;;;;;9.65;4.13;;;;;;;21.19;45.23;97344.91;10372879;28;20484;-56
2022/09/13 16:23:27;;;;;;;7.82;3.65;;;;;;;20.87;45.65;97348.25;10374133;28;20028;-56
2022/09/13 16:28:27;;;;;;;9.63;3.35;;;;;;;20.52;46.48;97349.06;10373655;28;20478;-56
2022/09/13 16:33:26;;;;;;;8.13;3.85;;;;;;;20.17;47.26;97357.69;10368555;28;20072;-56
2022/09/13 16:38:25;;;;;;;4.65;3.05;;;;;;;19.86;48.26;97368.72;10372690;28;20071;-56
2022/09/13 16:43:24;;;;;;;9.48;3.38;;;;;;;19.51;48.51;97362.34;10372371;28;20043;-56
2022/09/13 16:48:23;;;;;;;5.50;3.42;;;;;;;19.20;49.20;97374.19;10372272;28;20041;-56
2022/09/13 16:53:22;;;;;;;9.65;3.60;;;;;;;18.97;49.49;97373.38;10373222;28;20065;-56
2022/09/13 16:58:21;;;;;;;6.07;3.45;;;;;;;18.84;50.01;97384.44;10372745;28;20027;-56
2022/09/13 17:03:20;;;;;;;5.57;3.22;;;;;;;18.64;50.64;97396.56;10369100;28;20104;-55
2022/09/13 17:08:19;;;;;;;7.95;3.40;;;;;;;18.39;51.23;97407.19;10373190;28;20333;-55
2022/09/13 17:13:18;;;;;;;4.40;2.88;;;;;;;18.21;51.86;97413.13;10372237;28;20476;-56
2022/09/13 17:18:17;;;;;;;10.20;3.38;;;;;;;18.09;52.63;97423.16;10371182;28;20094;-55
2022/09/13 17:23:16;;;;;;;7.97;3.38;;;;;;;18.00;52.69;97428.75;10413533;28;20056;-55
2022/09/13 17:28:16;;;;;;;7.38;3.90;;;;;;;17.96;52.86;97448.13;10413291;28;20058;-56
2022/09/13 17:33:14;;;;;;;8.80;4.13;;;;;;;17.92;52.95;97446.56;10385455;28;20495;-55
2022/09/13 17:38:14;;;;;;;6.00;3.15;;;;;;;17.89;53.54;97455.34;10372433;28;20407;-55
2022/09/13 17:43:13;;;;;;;9.40;3.33;;;;;;;17.82;53.58;97453.00;10376162;28;20057;-56
2022/09/13 17:48:12;;;;;;;6.30;3.75;;;;;;;17.74;53.74;97456.72;10379142;28;20049;-56
2022/09/13 17:53:11;;;;;;;;;;;;;;;17.58;54.39;97460.78;10393384;28;20173;-56
2022/09/13 17:58:10;;;;;;;;;;;;;;;17.48;54.87;97465.50;10420144;28;20470;-56
2022/09/13 18:03:09;;;;;;;9.07;4.40;;;;;;;17.33;55.52;97472.13;10418568;28;20391;-56
2022/09/13 18:08:08;;;;;;;8.88;5.13;;;;;;;17.28;56.42;97473.16;10420524;28;20129;-56
2022/09/13 18:13:07;;;;;;;12.00;4.82;;;;;;;17.21;57.38;97471.63;10419312;28;20119;-56
2022/09/13 18:18:06;;;;;;;;;;;;;;;17.18;57.76;97487.47;10420064;28;20063;-56
2022/09/13 18:23:06;;;;;;;9.20;4.47;;;;;;;17.05;57.38;97487.00;10418551;28;20025;-56
2022/09/13 18:28:05;;;;;;;7.75;3.65;;;;;;;17.00;57.35;97488.91;10419168;28;20063;-56
2022/09/13 18:33:04;;;;;;;6.57;4.35;;;;;;;16.93;57.30;97494.34;10395632;28;20041;-56
2022/09/13 18:38:03;;;;;;;;;;;;;;;16.84;57.35;97501.59;10378972;28;20060;-56
2022/09/13 18:43:02;;;;;;;4.70;3.97;;;;;;;16.73;57.02;97502.75;10376675;28;19923;-56
2022/09/13 18:48:01;;;;;;;;;;;;;;;16.61;57.95;97507.53;10377484;28;20396;-56
2022/09/13 18:53:00;;;;;;;8.57;3.60;;;;;;;16.46;59.05;97508.81;10377031;28;19920;-56
2022/09/13 18:57:59;;;;;;;;;;;;;;;16.20;61.66;97512.16;10378051;28;20104;-56
2022/09/13 19:02:58;;;;;;;10.38;5.07;;;;;;;15.95;63.85;97518.06;10373501;28;19956;-56
2022/09/13 19:07:56;;;;;;;;;;;;;;;15.70;65.33;97515.19;10377868;28;20100;-56
2022/09/13 19:12:55;;;;;;;11.13;8.10;;;;;;;15.53;65.79;97507.75;10375603;28;19913;-56
2022/09/13 19:17:54;;;;;;;14.50;8.88;;;;;;;15.40;67.61;97508.94;10376309;28;20103;-55
2022/09/13 19:22:53;;;;;;;;;;;;;;;15.32;67.77;97511.75;10376707;28;20108;-55
2022/09/13 19:27:52;;;;;;;12.82;9.43;;;;;;;15.25;67.95;97511.03;10357488;28;19963;-55
2022/09/13 19:32:51;;;;;;;;;;;;;;;15.22;67.44;97521.59;10375754;28;20036;-55
2022/09/13 19:37:50;;;;;;;12.15;6.28;;;;;;;15.17;67.79;97526.03;10375851;28;20005;-55
2022/09/13 19:42:49;;;;;;;;;;;;;;;15.10;67.79;97531.44;10375764;28;20104;-55
2022/09/13 19:47:48;;;;;;;18.17;9.32;;;;;;;14.81;70.69;97546.88;10374516;28;19948;-55
2022/09/13 19:52:48;;;;;;;;;;;;;;;14.76;71.36;97547.88;10375492;28;20080;-55
2022/09/13 19:57:47;;;;;;;14.88;6.70;;;;;;;14.67;70.31;97537.56;10373910;28;20399;-55
2022/09/13 20:02:46;;;;;;;8.95;7.07;;;;;;;14.59;70.11;97535.09;10374174;28;20080;-55
2022/09/13 20:07:45;;;;;;;10.90;6.90;;;;;;;14.51;70.26;97534.41;10374279;28;20495;-55
2022/09/13 20:12:44;;;;;;;9.20;6.95;;;;;;;14.37;70.46;97535.53;10374393;28;20404;-56
2022/09/13 20:17:43;;;;;;;8.50;6.53;;;;;;;14.30;69.63;97539.16;10373185;28;20067;-55
2022/09/13 20:22:42;;;;;;;7.28;5.65;;;;;;;14.22;69.53;97546.28;10374421;28;20025;-55
2022/09/13 20:27:41;;;;;;;6.90;5.57;;;;;;;14.13;69.97;97541.25;10373682;28;20063;-55
2022/09/13 20:32:40;;;;;;;9.32;5.85;;;;;;;14.04;69.50;97546.63;10371820;28;20021;-56
2022/09/13 20:37:44;;;;;;;12.38;9.05;;;;;;;13.91;69.87;97559.91;10371819;28;20033;-55
2022/09/13 20:42:42;;;;;;;10.20;8.05;;;;;;;13.73;71.04;97558.47;10373451;28;20460;-55
2022/09/13 20:47:42;;;;;;;10.55;8.68;;;;;;;13.64;72.68;97557.75;10372218;28;20568;-55
2022/09/13 20:52:41;;;;;;;11.95;8.50;;;;;;;13.53;73.61;97563.09;10372478;28;20127;-55
2022/09/13 20:57:40;;;;;;;11.57;8.32;;;;;;;13.40;74.56;97574.59;10354798;28;20406;-55
2022/09/13 21:02:39;;;;;;;12.25;8.27;;;;;;;13.31;75.37;97583.44;10384689;28;20064;-55
2022/09/13 21:12:56;;;;;;;10.63;8.15;;;;;;;13.11;76.27;97576.75;10414127;28;20068;-55
2022/09/13 21:17:55;;;;;;;;;;;;;;;13.04;76.02;97575.09;10391418;28;20068;-55
2022/09/13 21:22:54;;;;;;;11.30;8.88;;;;;;;12.98;75.96;97580.41;10380951;28;19916;-55
2022/09/13 21:27:52;;;;;;;12.10;9.35;;;;;;;12.90;75.65;97580.50;10364560;28;20032;-55
2022/09/13 21:32:52;;;;;;;12.15;9.88;;;;;;;12.83;75.81;97583.22;10421865;28;20466;-55
2022/09/13 21:37:51;;;;;;;;;;;;;;;12.71;76.17;97584.22;10420870;28;20060;-55
2022/09/13 21:42:50;;;;;;;15.33;8.83;;;;;;;12.50;79.40;97572.31;10421286;28;19970;-55
2022/09/13 21:47:49;;;;;;;13.32;9.10;;;;;;;12.37;81.80;97573.34;10400045;28;20031;-55
2022/09/13 21:52:48;;;;;;;13.75;10.00;;;;;;;12.17;82.35;97571.78;10379181;28;20497;-54
2022/09/13 21:57:47;;;;;;;13.38;9.70;;;;;;;12.18;82.61;97568.31;10379184;28;20104;-55
2022/09/13 22:03:02;;;;;;;12.32;9.60;;;;;;;12.10;82.62;97580.53;10379670;28;20112;-55
2022/09/13 22:08:08;;;;;;;13.52;9.65;;;;;;;11.99;83.41;97569.34;10379111;28;20072;-55
2022/09/13 22:13:07;;;;;;;14.38;10.13;;;;;;;12.00;83.92;97576.31;10379490;28;20071;-55
2022/09/13 22:18:07;;;;;;;14.20;10.77;;;;;;;11.94;84.04;97576.34;10372454;28;20061;-55
2022/09/13 22:23:07;;;;;;;13.65;10.30;;;;;;;11.84;84.65;97580.78;10376327;28;20064;-55
2022/09/13 22:28:06;;;;;;;14.57;10.55;;;;;;;11.76;84.78;97575.66;10377843;28;20052;-55
2022/09/13 22:33:06;;;;;;;13.18;9.75;;;;;;;11.71;85.06;97573.94;10419963;28;20063;-55
2022/09/13 22:38:06;;;;;;;13.57;10.57;;;;;;;11.64;85.90;97575.72;10418462;28;20075;-55
2022/09/13 22:43:05;;;;;;;16.17;10.77;;;;;;;11.61;85.79;97576.63;10419067;28;20076;-55
2022/09/13 22:48:04;;;;;;;;;;;;;;;11.57;85.59;97569.75;10419299;28;20060;-55
2022/09/13 22:53:02;;;;;;;15.93;11.55;;;;;;;11.53;85.51;97580.19;10389701;28;19956;-55
2022/09/13 22:58:01;;;;;;;12.70;10.63;;;;;;;11.42;86.21;97575.91;10358575;28;20112;-55
2022/09/13 23:03:00;;;;;;;16.98;12.23;;;;;;;11.38;87.11;97575.94;10378842;28;20037;-55
2022/09/13 23:07:59;;;;;;;17.13;10.65;;;;;;;11.24;88.11;97576.03;10376500;28;20048;-55
2022/09/13 23:12:58;;;;;;;;;;;;;;;11.23;87.77;97590.75;10376804;28;20124;-55
2022/09/13 23:17:57;;;;;;;14.18;10.25;;;;;;;11.08;88.49;97580.47;10377025;28;19915;-55
2022/09/13 23:22:56;;;;;;;14.10;10.20;;;;;;;10.92;88.25;97592.66;10374032;28;20144;-55
2022/09/13 23:27:55;;;;;;;14.00;9.80;;;;;;;10.81;88.12;97592.69;10379677;28;20031;-55
2022/09/13 23:32:54;;;;;;;15.50;11.20;;;;;;;10.73;88.55;97593.56;10417330;28;20474;-55
2022/09/13 23:37:53;;;;;;;13.70;11.05;;;;;;;10.67;87.71;97583.25;10416736;28;20035;-55